Spring Valley, CA (91978)

10:10 PM PDT on August 19, 2014 (GMT -0700)
Helix | Change Station
CLOSE
Current Station
Personal Weather Station
Location: La Mesa, CA
Elevation: 1152 ft
Nearby Weather Stations

Elev 1152 ft 32.77 °N, 116.98 °W | Updated 13 seconds ago

Clear
Clear
63.0 °F
Feels Like 63.0 °F
N
0.0
Wind Variable Wind from ENE
Gusts 0.0 mph

Today
High -- | Low -- °F
--% Chance of Precip.
Yesterday
High -- | Low -- °F
Precip. -- in
6:14 AM 7:28 PM
Waning Crescent, 24% visible
Pressure 29.91 in
Visibility 10.0 miles
Clouds Clear
Dew Point 58 °F
Humidity 85%
Rainfall 0.00 in
Snow Depth Not available.
UV 0 out of 12
Pollen 5.20 out of 12
Ozone Good
PM2.5 Good
Flu Activity Not available.
METAR KSEE 200455Z AUTO 25004KT 10SM CLR 19/14 A2991 RMK AO2

More Conditions Fewer Conditions

Pressure 29.91 in
Visibility 10.0 miles
Clouds Clear
Dew Point 58 °F
Humidity 85%
Rainfall 0.00 in
Snow Depth Not available.
UV 0 out of 12
Pollen 5.20 out of 12
Ozone Good
PM2.5 Good
Flu Activity Not available.
METAR KSEE 200455Z AUTO 25004KT 10SM CLR 19/14 A2991 RMK AO2

More Conditions Fewer Conditions

10-Day Weather Forecast

Almanac

Astronomy

Aug. 19, 2014 Rise Set
Actual Time 6:14 AM PDT 7:28 PM PDT
Civil Twilight 5:48 AM PDT 7:53 PM PDT
Nautical Twilight 5:17 AM PDT 8:24 PM PDT
Astronomical Twilight 4:45 AM PDT 8:56 PM PDT
Moon 1:15 AM PDT (8/19) 3:22 PM PDT (8/19)
Length of Visible Light 14h 05m
Length of Day
13h 14m
Tomorrow will be 1m 50s shorter.
Waning Crescent, 24% of the Moon is Illuminated
Aug 20
Waning Crescent
Aug 25
New
Sep 2
First Quarter
Sep 8
Full
Sep 15
Last Quarter

Yesterday's Extremes

State Highs State Lows

Community

WunderPhotos

Upload Photos

1,745,592 photos uploaded!

Nearby

Air Quality

  Air Quality AQ Index Pollutant
Yesterday Good
PM2.5
Yesterday Good
OZONE
Current Good
PM2.5
Current Good
OZONE
Tuesday Good
PM2.5
Wednesday Good
PM2.5
Wednesday Good
OZONE

Snow Depth

Station Depth Elevation
Leavitt Lake 0 in 9400 ft
Leavitt Meadows 0 in 7200 ft
Monitor Pass 0 in 8350 ft
Blue Lakes 0 in 8000 ft
Hagan's Meadow 0 in 8000 ft

Earthquake Activity

City Distance Mag. Time & Date
Malibu Beach, California 134 miles 3.4 10:03 AM PDT
2014-08-15
Yucca Valley, California 114 miles 3.8 8:57 PM PDT
2014-08-14
Alberto Oviedo Mota, Mexico 111 miles 2.8 3:03 PM PDT
2014-08-14
Salton City, California 65 miles 2.6 6:58 AM PDT
2014-08-14
Minimum magnitude displayed is 2.5.

Coastal Water Temperatures

Place Temperature
San Diego, CA 75.0 °F

Nearby Weather Stations